Latest Weather Observations for Morawa Airport

IDW60801

Issued at 7:33 pm WST Thursday 23 February 2017 (issued every 30 minutes, with the page automatically refreshed every 10 minutes)

About weather observations | Map of weather stations | Latest weather observations for WA | Other Formats
Station Details ID: 008296 Name: MORAWA AIRPORT Lat: -29.20 Lon: 116.02 Height: 271.4 m
Data from the previous 72 hours. | See also: Recent months at Morawa Airport
Date/Time
WST
Temp
°C
App
Temp
°C
Dew
Point
°C
Rel
Hum
%
Delta-T
°C
Wind Press
QNH
hPa
Press
MSL
hPa
Rain since
9am
mm
Dir  Spd
km/h
Gust
km/h
Spd
kts
Gust
kts
23/07:30pm 27.6 24.6 4.0 22 12.0 ESE 9 9 5 5 1018.1 1016.2 0.0
23/07:00pm 30.3 26.9 1.7 16 14.2 E 9 13 5 7 1017.7 1015.8 0.0
23/06:30pm 32.5 28.3 1.6 14 15.6 ESE 13 17 7 9 1017.5 1015.6 0.0
23/06:00pm 33.5 29.2 1.3 13 16.3 E 13 20 7 11 1017.1 1015.3 0.0
23/05:30pm 33.9 29.5 0.5 12 16.7 E 13 22 7 12 1017.1 1015.3 0.0
23/05:00pm 34.2 29.9 0.8 12 16.8 ESE 13 20 7 11 1017.1 1015.3 0.0
23/04:30pm 34.0 29.4 1.7 13 16.5 E 15 26 8 14 1017.0 1015.2 0.0
23/04:00pm 33.8 29.6 1.6 13 16.4 E 13 22 7 12 1017.1 1015.3 0.0
23/03:30pm 33.8 29.8 2.6 14 16.1 E 13 24 7 13 1017.2 1015.4 0.0
23/03:00pm 33.9 28.9 1.6 13 16.4 ENE 17 28 9 15 1017.5 1015.6 0.0
23/02:30pm 33.2 29.1 2.1 14 15.9 E 13 22 7 12 1017.8 1015.9 0.0
23/02:00pm 33.2 29.1 2.1 14 15.9 ENE 13 22 7 12 1018.3 1016.4 0.0
23/01:30pm 32.0 27.7 1.2 14 15.4 E 13 24 7 13 1018.6 1016.8 0.0
23/01:00pm 31.8 28.4 3.8 17 14.6 ENE 11 28 6 15 1018.9 1017.1 0.0
23/12:30pm 31.3 27.6 4.2 18 14.2 ENE 13 24 7 13 1019.2 1017.4 0.0
23/12:00pm 30.2 26.6 4.8 20 13.3 E 13 24 7 13 1019.4 1017.6 0.0
23/11:30am 29.7 26.0 4.4 20 13.2 NE 13 24 7 13 1019.7 1017.9 0.0
23/11:00am 29.2 24.9 5.3 22 12.6 ENE 17 24 9 13 1020.2 1018.4 0.0
23/10:30am 27.8 24.2 6.6 26 11.3 ENE 15 24 8 13 1020.4 1018.6 0.0
23/10:00am 27.4 23.3 6.2 26 11.2 ENE 17 26 9 14 1020.7 1018.9 0.0
23/09:30am 26.9 23.2 6.3 27 10.9 ENE 15 22 8 12 1020.6 1018.8 0.0
23/09:00am 25.5 21.4 6.2 29 10.1 E 17 24 9 13 1020.6 1018.8 0.0
23/08:30am 24.2 21.1 7.4 34 8.9 E 13 19 7 10 1020.6 1018.8 0.0
23/08:00am 22.1 19.5 9.3 44 6.9 E 13 19 7 10 1020.5 1018.7 0.0
23/07:30am 19.8 16.8 9.4 51 5.6 ESE 15 19 8 10 1020.5 1018.7 0.0
23/07:00am 18.2 16.4 9.5 57 4.6 SSE 9 13 5 7 1020.3 1018.5 0.0
23/06:30am 16.4 15.0 9.6 64 3.6 SE 7 11 4 6 1019.8 1018.0 0.0
23/06:00am 15.3 13.8 8.5 64 3.5 ESE 6 7 3 4 1019.6 1017.8 0.0
23/05:30am 16.8 14.8 8.8 59 4.2 E 9 11 5 6 1019.5 1017.7 0.0
23/05:00am 16.6 15.0 8.6 59 4.1 E 7 13 4 7 1019.3 1017.5 0.0
23/04:30am 17.1 15.4 8.5 57 4.5 ESE 7 13 4 7 1019.2 1017.4 0.0
23/04:00am 17.4 15.6 8.0 54 4.8 ESE 7 15 4 8 1019.4 1017.6 0.0
23/03:30am 18.1 15.6 8.1 52 5.2 ESE 11 17 6 9 1019.3 1017.5 0.0
23/03:00am 18.1 15.6 8.1 52 5.2 SE 11 13 6 7 1019.2 1017.4 0.0
23/02:30am 18.5 15.5 7.9 50 5.5 ESE 13 15 7 8 1019.2 1017.4 0.0
23/02:00am 18.1 15.9 7.8 51 5.3 ESE 9 11 5 6 1019.4 1017.6 0.0
23/01:30am 17.6 15.9 7.4 51 5.2 SE 6 11 3 6 1019.6 1017.8 0.0
23/01:00am 18.2 15.8 7.0 48 5.7 SSW 9 11 5 6 1019.6 1017.8 0.0
23/12:30am 18.3 16.2 6.5 46 5.9 SSE 7 9 4 5 1019.6 1017.8 0.0
23/12:00am 19.2 16.7 6.7 44 6.3 SSE 9 13 5 7 1019.6 1017.8 0.0
 
Date/Time
WST
Temp
°C
App
Temp
°C
Dew
Point
°C
Rel
Hum
%
Delta-T
°C
Wind Press
QNH
hPa
Press
MSL
hPa
Rain since
9am
mm
Dir  Spd
km/h
Gust
km/h
Spd
kts
Gust
kts
22/11:30pm 19.0 16.5 6.5 44 6.3 SE 9 11 5 6 1019.5 1017.7 0.0
22/11:00pm 20.6 17.6 5.8 38 7.4 SE 11 13 6 7 1019.5 1017.7 0.0
22/10:30pm 20.9 17.5 6.1 38 7.5 SSE 13 19 7 10 1019.5 1017.7 0.0
22/10:00pm 21.1 18.1 5.9 37 7.7 SSE 11 15 6 8 1019.5 1017.7 0.0
22/09:30pm 21.0 18.3 5.4 36 7.8 SSE 9 13 5 7 1019.4 1017.6 0.0
22/09:00pm 22.3 19.6 5.7 34 8.4 S 9 13 5 7 1019.3 1017.5 0.0
22/08:30pm 21.9 19.5 5.3 34 8.4 SSE 7 9 4 5 1019.0 1017.2 0.0
22/08:00pm 22.8 19.9 4.8 31 9.0 SSE 9 9 5 5 1018.7 1016.9 0.0
22/07:30pm 24.4 21.4 4.2 27 10.1 SSE 9 13 5 7 1018.5 1016.7 0.0
22/07:00pm 26.1 22.6 3.4 23 11.3 SE 11 15 6 8 1018.1 1016.2 0.0
22/06:30pm 27.5 23.7 3.9 22 12.0 ESE 13 20 7 11 1017.8 1015.9 0.0
22/06:00pm 28.2 24.8 3.8 21 12.4 SE 11 19 6 10 1017.6 1015.7 0.0
22/05:30pm 28.4 25.2 3.3 20 12.7 ESE 9 13 5 7 1017.5 1015.6 0.0
22/05:00pm 28.5 24.7 4.1 21 12.5 ESE 13 20 7 11 1017.6 1015.7 0.0
22/04:30pm 28.4 24.9 3.3 20 12.7 SE 11 17 6 9 1017.5 1015.6 0.0
22/04:00pm 28.6 25.0 2.7 19 13.0 SE 11 20 6 11 1017.7 1015.8 0.0
22/03:30pm 28.6 24.7 3.5 20 12.8 SSE 13 26 7 14 1017.9 1016.0 0.0
22/03:00pm 27.4 23.5 3.2 21 12.1 SE 13 19 7 10 1018.1 1016.2 0.0
22/02:30pm 27.3 24.2 3.7 22 12.0 SE 9 24 5 13 1018.4 1016.6 0.0
22/02:00pm 27.0 23.6 4.1 23 11.6 ESE 11 24 6 13 1018.7 1016.9 0.0
22/01:30pm 26.0 22.2 3.9 24 11.1 E 13 22 7 12 1019.1 1017.3 0.0
22/01:00pm 25.9 22.5 3.8 24 11.1 SE 11 20 6 11 1019.4 1017.6 0.0
22/12:30pm 25.0 21.0 4.7 27 10.3 ESE 15 22 8 12 1019.7 1017.9 0.0
22/12:00pm 24.1 20.7 5.9 31 9.4 E 13 26 7 14 1020.0 1018.2 0.0
22/11:30am 23.6 19.5 6.0 32 9.1 SE 17 26 9 14 1020.4 1018.6 0.0
22/11:00am 22.0 18.2 5.8 35 8.2 SE 15 24 8 13 1020.6 1018.8 0.0
22/10:30am 21.5 17.8 6.2 37 7.8 ESE 15 22 8 12 1020.8 1019.0 0.0
22/10:00am 20.6 16.2 6.5 40 7.2 ESE 19 26 10 14 1021.1 1019.3 0.0
22/09:30am 20.0 15.4 6.4 41 6.9 ESE 20 28 11 15 1021.3 1019.4 0.0
22/09:00am 19.1 14.1 6.6 44 6.3 ESE 22 32 12 17 1021.4 1019.5 0.0
22/08:30am 18.0 13.5 6.8 48 5.7 ESE 20 30 11 16 1021.3 1019.4 0.0
22/08:00am 16.8 12.4 7.4 54 4.8 ESE 20 30 11 16 1020.9 1019.1 0.0
22/07:30am 15.7 12.4 8.2 61 3.8 SE 15 22 8 12 1020.9 1019.1 0.0
22/07:00am 14.1 11.8 9.1 72 2.6 SSE 11 13 6 7 1020.6 1018.8 0.0
22/06:30am 12.9 11.7 9.7 81 1.7 SSE 6 7 3 4 1020.2 1018.4 0.0
22/06:00am 12.3 10.9 9.7 84 1.3 SSE 7 9 4 5 1020.0 1018.2 0.0
22/05:30am 12.6 11.2 9.4 81 1.6 S 7 11 4 6 1019.8 1018.0 0.0
22/05:00am 12.9 10.3 9.4 79 1.8 S 13 17 7 9 1019.5 1017.7 0.0
22/04:30am 12.7 11.5 9.5 81 1.6 S 6 7 3 4 1019.3 1017.5 0.0
22/04:00am 12.9 11.5 9.5 80 1.8 S 7 9 4 5 1019.0 1017.2 0.0
22/03:30am 13.3 11.9 9.5 78 2.0 SSW 7 13 4 7 1018.8 1017.0 0.0
22/03:00am 13.7 11.6 9.6 76 2.1 S 11 13 6 7 1018.6 1016.8 0.0
22/02:30am 14.1 12.3 9.5 74 2.4 S 9 15 5 8 1018.6 1016.8 0.0
22/02:00am 14.4 11.8 9.4 72 2.6 S 13 19 7 10 1018.6 1016.8 0.0
22/01:30am 14.7 11.7 9.1 69 2.9 S 15 22 8 12 1018.8 1017.0 0.0
22/01:00am 14.9 12.5 8.8 67 3.1 S 11 17 6 9 1018.8 1017.0 0.0
22/12:30am 15.3 11.7 8.5 64 3.5 S 17 22 9 12 1018.8 1017.0 0.0
22/12:00am 15.5 12.1 9.2 66 3.3 S 17 26 9 14 1018.7 1016.9 0.0
 
Date/Time
WST
Temp
°C
App
Temp
°C
Dew
Point
°C
Rel
Hum
%
Delta-T
°C
Wind Press
QNH
hPa
Press
MSL
hPa
Rain since
9am
mm
Dir  Spd
km/h
Gust
km/h
Spd
kts
Gust
kts
21/11:30pm 15.8 13.1 8.8 63 3.6 SSW 13 19 7 10 1018.9 1017.1 0.0
21/11:00pm 16.3 13.1 8.5 60 4.0 SSW 15 20 8 11 1018.9 1017.1 0.0
21/10:30pm 16.8 13.2 8.5 58 4.3 SSW 17 26 9 14 1018.8 1017.0 0.0
21/10:00pm 17.5 12.9 8.1 54 4.8 S 22 28 12 15 1018.8 1017.0 0.0
21/09:30pm 18.1 14.6 8.9 55 4.8 SSW 17 22 9 12 1018.7 1016.9 0.0
21/09:00pm 18.8 14.9 8.7 52 5.3 SSW 19 26 10 14 1018.5 1016.7 0.0
21/08:30pm 19.6 15.5 7.7 46 6.2 SSW 19 26 10 14 1018.1 1016.2 0.0
21/08:00pm 20.4 16.5 7.1 42 6.9 SSW 17 24 9 13 1017.6 1015.7 0.0
21/07:30pm 21.1 17.1 6.6 39 7.4 SSW 17 24 9 13 1017.1 1015.3 0.0
21/07:00pm 21.8 17.8 6.5 37 7.9 SSW 17 26 9 14 1016.7 1014.9 0.0
21/06:30pm 22.7 17.7 6.5 35 8.4 SSW 22 30 12 16 1016.3 1014.5 0.0
21/06:00pm 23.8 19.4 7.4 35 8.7 SSW 20 30 11 16 1015.8 1014.0 0.0
21/05:30pm 24.6 19.7 6.8 32 9.4 SSW 22 30 12 16 1015.4 1013.6 0.0
21/05:00pm 25.3 20.6 7.9 33 9.4 SSW 22 35 12 19 1015.1 1013.3 0.0
21/04:30pm 26.0 21.2 8.9 34 9.4 SSW 24 33 13 18 1014.7 1012.8 0.0
21/04:00pm 26.1 22.1 9.0 34 9.4 SSW 20 28 11 15 1014.5 1012.6 0.0
21/03:30pm 25.9 21.2 9.3 35 9.2 S 24 33 13 18 1014.4 1012.5 0.0
21/03:00pm 26.4 22.5 9.3 34 9.5 SW 20 33 11 18 1014.5 1012.6 0.0
21/02:30pm 25.9 22.3 10.5 38 8.7 SW 20 35 11 19 1014.7 1012.8 0.0
21/02:00pm 26.2 22.7 10.8 38 8.8 SW 20 33 11 18 1014.9 1013.0 0.0
21/01:30pm 26.5 22.9 10.6 37 9.0 SW 20 39 11 21 1015.2 1013.4 0.0
21/01:00pm 25.5 21.2 9.3 36 9.0 SW 22 39 12 21 1015.3 1013.5 0.0
21/12:30pm 25.2 20.6 9.5 37 8.7 SSW 24 37 13 20 1015.5 1013.7 0.0
21/12:00pm 25.0 20.8 9.7 38 8.5 SSW 22 35 12 19 1015.8 1014.0 0.0
21/11:30am 23.6 19.9 9.6 41 7.7 SW 19 30 10 16 1016.1 1014.3 0.0
21/11:00am 23.0 18.8 9.8 43 7.3 SSW 22 37 12 20 1016.2 1014.4 0.0
21/10:30am 22.9 18.8 10.0 44 7.1 SSW 22 32 12 17 1016.4 1014.6 0.0
21/10:00am 21.8 17.8 10.3 48 6.3 SW 22 35 12 19 1016.6 1014.8 0.0
21/09:30am 21.0 17.1 10.8 52 5.7 SW 22 33 12 18 1016.6 1014.8 0.0
21/09:00am 20.4 16.7 10.2 52 5.6 SW 20 26 11 14 1016.5 1014.7 2.2
21/08:30am 19.3 15.7 10.6 57 4.8 SW 20 32 11 17 1016.4 1014.6 2.2
21/08:00am 18.7 15.8 12.2 66 3.7 SSW 19 28 10 15 1016.1 1014.3 2.2
21/07:30am 18.1 15.2 12.8 71 3.0 SSW 20 28 11 15 1015.8 1014.0 2.2
21/07:00am 17.4 16.0 13.3 77 2.3 SSW 13 20 7 11 1015.3 1013.5 2.2
21/06:30am 16.8 15.4 13.3 80 2.0 SSW 13 20 7 11 1015.0 1013.1 2.2
21/06:00am 16.5 15.0 13.2 81 1.9 SSW 13 19 7 10 1014.6 1012.7 2.2
21/05:30am 16.7 15.1 13.8 83 1.7 SW 15 22 8 12 1014.2 1012.3 2.2
21/05:00am 16.5 15.3 14.0 85 1.4 SW 13 20 7 11 1013.9 1012.0 2.2
21/04:30am 16.5 15.5 14.7 89 1.0 SW 13 19 7 10 1013.7 1011.8 2.2
21/04:00am 16.7 15.7 14.7 88 1.2 SW 13 19 7 10 1013.3 1011.5 2.2
21/03:30am 17.0 16.0 14.5 85 1.5 SSW 13 19 7 10 1013.3 1011.5 2.2
21/03:00am 17.4 16.1 14.7 84 1.6 SSW 15 19 8 10 1013.5 1011.6 2.2
21/02:30am 17.9 16.5 14.6 81 1.9 SSW 15 19 8 10 1013.6 1011.7 2.2
21/02:00am 18.1 16.9 15.0 82 1.8 SSW 15 22 8 12 1013.8 1011.9 2.2
21/01:30am 18.1 17.3 15.0 82 1.8 SSW 13 17 7 9 1013.8 1011.9 2.2
21/01:00am 18.1 15.8 14.6 80 2.0 SSW 20 30 11 16 1013.6 1011.7 2.2
21/12:30am 18.4 16.4 14.9 80 2.1 SSW 19 28 10 15 1013.8 1011.9 2.2
21/12:00am 18.8 16.8 14.9 78 2.3 SSW 19 32 10 17 1014.2 1012.3 2.2
 
Date/Time
WST
Temp
°C
App
Temp
°C
Dew
Point
°C
Rel
Hum
%
Delta-T
°C
Wind Press
QNH
hPa
Press
MSL
hPa
Rain since
9am
mm
Dir  Spd
km/h
Gust
km/h
Spd
kts
Gust
kts
20/11:30pm 19.0 16.8 14.9 77 2.4 SSW 20 28 11 15 1014.2 1012.3 2.2
20/11:00pm 19.6 17.4 15.9 79 2.2 SSW 22 28 12 15 1014.2 1012.3 2.2
20/10:30pm 20.5 19.2 16.7 79 2.3 SSW 19 28 10 15 1014.3 1012.4 2.2
20/10:00pm 21.3 21.3 17.1 77 2.6 SW 13 20 7 11 1013.8 1011.9 2.2
20/09:30pm 21.9 22.4 17.5 76 2.7 WSW 11 19 6 10 1013.7 1011.8 2.2
20/09:00pm 23.0 21.7 17.2 70 3.6 WSW 20 26 11 14 1013.8 1011.9 2.2
20/08:30pm 24.1 25.5 18.7 72 3.5 WSW 9 13 5 7 1013.2 1011.4 2.2
20/08:00pm 23.9 26.8 20.6 82 2.2 SW 6 9 3 5 1012.9 1011.1 2.2

Other Formats:

Comma delimited format used in spreadsheet applications
http://www.bom.gov.au/fwo/IDW60801/IDW60801.94417.axf

JavaScript Object Notation format (JSON) in row-major order
http://www.bom.gov.au/fwo/IDW60801/IDW60801.94417.json